map of PBO home
PBO - Airport
Location
City:  Paraburdoo, Western Australia, Australia
ICAO:YPBO
IATA:PBO

Details
Type:Airport (Aerodrome, Airfield)
Latitude:2310'16"S (-23.171110)
Longitude:11744'43"E (117.745278)
Datum:WGS 1984
Elevation:1406 ft (429 m)
Variation:0.91E (WMM2015v2 magnetic declination)
-0.03 annual change
Runways:1
Longest:6995 × 148 ft (2132 × 45 m), paved

Time
Time Zone:UTC+8
Local Time:

Weather
METAR:YPBO 041400Z AUTO 13004KT 020V180 9999 -SHRA SCT050 SCT068 SCT092 30/16 Q1009

Related Locations
Nearby:
Farthest:NGD: 12099 mi / 19471 km
Anegada (The Settlement) [Capt. Auguste George Airport], Anegada, VG

Find:

   beyond  
but within

Other Information
Maps:
NOTAMs:
Links:
Sources:

  
  • flag of Australia
  • flag of Western Australia
  

Sectional Chart

Flight Planning
at skyvector.com

Satellite Image

Google Maps Satellite view

 

Copyright © 2004-2019 Karl L. Swartz. All rights reserved.
The Great Circle Mapper name and logo are trademarks of the Great Circle Mapper.
All other trademarks mentioned herein belong to their respective owners.
Please see credits for attibutions and further copyright information.

  Follow gcmap on Facebook Follow gcmap on Twitter GCmap on LinkedIn

hCard Microformat

Geo Microformat